sensor_id;sensor_type;location;lat;lon;timestamp;temperature;humidity
23452;DHT22;11898;51.130;6.780;2023-07-13T00:00:03;21.30;99.90
23452;DHT22;11898;51.130;6.780;2023-07-13T00:02:34;21.30;99.90
23452;DHT22;11898;51.130;6.780;2023-07-13T00:05:02;21.20;99.90
23452;DHT22;11898;51.130;6.780;2023-07-13T00:07:31;21.10;99.90
23452;DHT22;11898;51.130;6.780;2023-07-13T00:10:00;21.10;99.90
23452;DHT22;11898;51.130;6.780;2023-07-13T00:12:32;21.00;99.90
23452;DHT22;11898;51.130;6.780;2023-07-13T00:15:04;21.00;99.90
23452;DHT22;11898;51.130;6.780;2023-07-13T00:17:32;20.90;99.90
23452;DHT22;11898;51.130;6.780;2023-07-13T00:20:01;20.90;99.90
23452;DHT22;11898;51.130;6.780;2023-07-13T00:22:31;20.80;99.90
23452;DHT22;11898;51.130;6.780;2023-07-13T00:25:00;20.80;99.90
23452;DHT22;11898;51.130;6.780;2023-07-13T00:27:29;20.70;99.90
23452;DHT22;11898;51.130;6.780;2023-07-13T00:30:00;20.70;99.90
23452;DHT22;11898;51.130;6.780;2023-07-13T00:32:30;20.60;99.90
23452;DHT22;11898;51.130;6.780;2023-07-13T00:34:59;20.50;99.90
23452;DHT22;11898;51.130;6.780;2023-07-13T00:37:28;20.40;99.90
23452;DHT22;11898;51.130;6.780;2023-07-13T00:39:57;20.40;99.90
23452;DHT22;11898;51.130;6.780;2023-07-13T00:42:25;20.30;99.90
23452;DHT22;11898;51.130;6.780;2023-07-13T00:45:05;20.30;99.90
23452;DHT22;11898;51.130;6.780;2023-07-13T00:47:34;20.30;99.90
23452;DHT22;11898;51.130;6.780;2023-07-13T00:50:04;20.20;99.90
23452;DHT22;11898;51.130;6.780;2023-07-13T00:52:36;20.20;99.90
23452;DHT22;11898;51.130;6.780;2023-07-13T00:55:06;20.20;99.90
23452;DHT22;11898;51.130;6.780;2023-07-13T00:57:37;20.20;99.90
23452;DHT22;11898;51.130;6.780;2023-07-13T01:00:07;20.10;99.90
23452;DHT22;11898;51.130;6.780;2023-07-13T01:02:41;20.10;99.90
23452;DHT22;11898;51.130;6.780;2023-07-13T01:05:16;20.10;99.90
23452;DHT22;11898;51.130;6.780;2023-07-13T01:07:45;20.00;99.90
23452;DHT22;11898;51.130;6.780;2023-07-13T01:10:16;20.00;99.90
23452;DHT22;11898;51.130;6.780;2023-07-13T01:12:45;20.00;99.90
23452;DHT22;11898;51.130;6.780;2023-07-13T01:15:42;19.90;99.90
23452;DHT22;11898;51.130;6.780;2023-07-13T01:18:14;20.00;99.90
23452;DHT22;11898;51.130;6.780;2023-07-13T01:20:59;20.00;99.90
23452;DHT22;11898;51.130;6.780;2023-07-13T01:23:24;20.00;99.90
23452;DHT22;11898;51.130;6.780;2023-07-13T01:25:53;20.00;99.90
23452;DHT22;11898;51.130;6.780;2023-07-13T01:28:23;19.90;99.90
23452;DHT22;11898;51.130;6.780;2023-07-13T01:30:56;19.90;99.90
23452;DHT22;11898;51.130;6.780;2023-07-13T01:33:26;20.00;99.90
23452;DHT22;11898;51.130;6.780;2023-07-13T01:35:54;20.00;99.90
23452;DHT22;11898;51.130;6.780;2023-07-13T01:38:25;20.00;99.90
23452;DHT22;11898;51.130;6.780;2023-07-13T01:40:54;19.90;99.90
23452;DHT22;11898;51.130;6.780;2023-07-13T01:43:23;19.90;99.90
23452;DHT22;11898;51.130;6.780;2023-07-13T01:45:52;20.00;99.90
23452;DHT22;11898;51.130;6.780;2023-07-13T01:48:22;20.00;99.90
23452;DHT22;11898;51.130;6.780;2023-07-13T01:50:51;19.30;99.90
23452;DHT22;11898;51.130;6.780;2023-07-13T01:53:19;20.00;99.90
23452;DHT22;11898;51.130;6.780;2023-07-13T01:55:48;19.90;99.90
23452;DHT22;11898;51.130;6.780;2023-07-13T01:58:17;19.90;99.90
23452;DHT22;11898;51.130;6.780;2023-07-13T02:00:48;19.90;99.90
23452;DHT22;11898;51.130;6.780;2023-07-13T02:03:17;19.90;99.90
23452;DHT22;11898;51.130;6.780;2023-07-13T02:05:47;19.90;99.90
23452;DHT22;11898;51.130;6.780;2023-07-13T02:08:17;19.90;99.90
23452;DHT22;11898;51.130;6.780;2023-07-13T02:10:46;19.90;99.90
23452;DHT22;11898;51.130;6.780;2023-07-13T02:13:15;19.90;99.90
23452;DHT22;11898;51.130;6.780;2023-07-13T02:15:43;19.90;99.90
23452;DHT22;11898;51.130;6.780;2023-07-13T02:18:12;19.80;99.90
23452;DHT22;11898;51.130;6.780;2023-07-13T02:20:42;19.80;99.90
23452;DHT22;11898;51.130;6.780;2023-07-13T02:23:12;19.80;99.90
23452;DHT22;11898;51.130;6.780;2023-07-13T02:25:40;19.80;99.90
23452;DHT22;11898;51.130;6.780;2023-07-13T02:28:09;19.80;99.90
23452;DHT22;11898;51.130;6.780;2023-07-13T02:30:38;19.80;99.90
23452;DHT22;11898;51.130;6.780;2023-07-13T02:33:07;19.70;99.90
23452;DHT22;11898;51.130;6.780;2023-07-13T02:35:36;19.70;99.90
23452;DHT22;11898;51.130;6.780;2023-07-13T02:38:04;19.70;99.90
23452;DHT22;11898;51.130;6.780;2023-07-13T02:40:33;19.70;99.90
23452;DHT22;11898;51.130;6.780;2023-07-13T02:43:03;19.70;99.90
23452;DHT22;11898;51.130;6.780;2023-07-13T02:45:31;19.70;99.90
23452;DHT22;11898;51.130;6.780;2023-07-13T02:48:00;19.70;99.90
23452;DHT22;11898;51.130;6.780;2023-07-13T02:50:29;19.70;99.90
23452;DHT22;11898;51.130;6.780;2023-07-13T02:52:57;19.70;99.90
23452;DHT22;11898;51.130;6.780;2023-07-13T02:55:26;19.60;99.90
23452;DHT22;11898;51.130;6.780;2023-07-13T02:57:55;19.60;99.90
23452;DHT22;11898;51.130;6.780;2023-07-13T03:00:24;19.50;99.90
23452;DHT22;11898;51.130;6.780;2023-07-13T03:02:53;19.60;99.90
23452;DHT22;11898;51.130;6.780;2023-07-13T03:05:24;19.50;99.90
23452;DHT22;11898;51.130;6.780;2023-07-13T03:07:53;19.50;99.90
23452;DHT22;11898;51.130;6.780;2023-07-13T03:10:22;19.50;99.90
23452;DHT22;11898;51.130;6.780;2023-07-13T03:12:51;19.50;99.90
23452;DHT22;11898;51.130;6.780;2023-07-13T03:15:19;19.50;99.90
23452;DHT22;11898;51.130;6.780;2023-07-13T03:17:48;19.40;99.90
23452;DHT22;11898;51.130;6.780;2023-07-13T03:20:17;19.50;99.90
23452;DHT22;11898;51.130;6.780;2023-07-13T03:22:45;19.40;99.90
23452;DHT22;11898;51.130;6.780;2023-07-13T03:25:15;19.50;99.90
23452;DHT22;11898;51.130;6.780;2023-07-13T03:27:43;19.40;99.90
23452;DHT22;11898;51.130;6.780;2023-07-13T03:30:12;19.40;99.90
23452;DHT22;11898;51.130;6.780;2023-07-13T03:32:41;19.40;99.90
23452;DHT22;11898;51.130;6.780;2023-07-13T03:35:10;19.40;99.90
23452;DHT22;11898;51.130;6.780;2023-07-13T03:37:39;19.40;99.90
23452;DHT22;11898;51.130;6.780;2023-07-13T03:40:10;19.30;99.90
23452;DHT22;11898;51.130;6.780;2023-07-13T03:42:39;19.30;99.90
23452;DHT22;11898;51.130;6.780;2023-07-13T03:45:08;19.30;99.90
23452;DHT22;11898;51.130;6.780;2023-07-13T03:47:37;19.30;99.90
23452;DHT22;11898;51.130;6.780;2023-07-13T03:50:06;19.20;99.90
23452;DHT22;11898;51.130;6.780;2023-07-13T03:52:35;19.20;99.90
23452;DHT22;11898;51.130;6.780;2023-07-13T03:55:04;19.20;99.90
23452;DHT22;11898;51.130;6.780;2023-07-13T03:57:34;19.20;99.90
23452;DHT22;11898;51.130;6.780;2023-07-13T04:00:05;19.10;99.90
23452;DHT22;11898;51.130;6.780;2023-07-13T04:02:33;19.10;99.90
23452;DHT22;11898;51.130;6.780;2023-07-13T04:05:03;19.10;99.90
23452;DHT22;11898;51.130;6.780;2023-07-13T04:07:31;19.10;99.90
23452;DHT22;11898;51.130;6.780;2023-07-13T04:10:00;19.10;99.90
23452;DHT22;11898;51.130;6.780;2023-07-13T04:12:32;19.00;99.90
23452;DHT22;11898;51.130;6.780;2023-07-13T04:15:01;19.00;99.90
23452;DHT22;11898;51.130;6.780;2023-07-13T04:17:29;19.10;99.90
23452;DHT22;11898;51.130;6.780;2023-07-13T04:19:58;19.10;99.90
23452;DHT22;11898;51.130;6.780;2023-07-13T04:22:27;19.10;99.90
23452;DHT22;11898;51.130;6.780;2023-07-13T04:24:55;19.20;99.90
23452;DHT22;11898;51.130;6.780;2023-07-13T04:27:24;19.20;99.90
23452;DHT22;11898;51.130;6.780;2023-07-13T04:29:53;19.20;99.90
23452;DHT22;11898;51.130;6.780;2023-07-13T04:32:21;19.30;99.90
23452;DHT22;11898;51.130;6.780;2023-07-13T04:34:50;19.30;99.90
23452;DHT22;11898;51.130;6.780;2023-07-13T04:37:21;19.30;99.90
23452;DHT22;11898;51.130;6.780;2023-07-13T04:39:49;19.40;99.90
23452;DHT22;11898;51.130;6.780;2023-07-13T04:42:38;19.50;99.90
23452;DHT22;11898;51.130;6.780;2023-07-13T04:45:07;19.60;99.90
23452;DHT22;11898;51.130;6.780;2023-07-13T04:47:36;19.70;99.90
23452;DHT22;11898;51.130;6.780;2023-07-13T04:50:06;19.80;99.90
23452;DHT22;11898;51.130;6.780;2023-07-13T04:52:35;19.80;99.90
23452;DHT22;11898;51.130;6.780;2023-07-13T04:55:04;20.00;99.90
23452;DHT22;11898;51.130;6.780;2023-07-13T04:57:33;20.00;99.90
23452;DHT22;11898;51.130;6.780;2023-07-13T05:00:01;20.10;99.90
23452;DHT22;11898;51.130;6.780;2023-07-13T05:02:32;20.20;99.90
23452;DHT22;11898;51.130;6.780;2023-07-13T05:05:02;20.40;99.90
23452;DHT22;11898;51.130;6.780;2023-07-13T05:07:31;20.50;99.90
23452;DHT22;11898;51.130;6.780;2023-07-13T05:10:00;20.50;99.90
23452;DHT22;11898;51.130;6.780;2023-07-13T05:12:29;20.60;99.90
23452;DHT22;11898;51.130;6.780;2023-07-13T05:14:59;20.70;99.90
23452;DHT22;11898;51.130;6.780;2023-07-13T05:17:28;20.90;99.90
23452;DHT22;11898;51.130;6.780;2023-07-13T05:19:56;21.00;99.90
23452;DHT22;11898;51.130;6.780;2023-07-13T05:22:25;21.10;99.90
23452;DHT22;11898;51.130;6.780;2023-07-13T05:24:54;21.30;99.90
23452;DHT22;11898;51.130;6.780;2023-07-13T05:27:22;21.30;99.90
23452;DHT22;11898;51.130;6.780;2023-07-13T05:29:51;21.40;99.90
23452;DHT22;11898;51.130;6.780;2023-07-13T05:32:20;21.60;99.90
23452;DHT22;11898;51.130;6.780;2023-07-13T05:34:49;21.80;99.90
23452;DHT22;11898;51.130;6.780;2023-07-13T05:37:17;21.80;99.90
23452;DHT22;11898;51.130;6.780;2023-07-13T05:39:46;21.90;99.90
23452;DHT22;11898;51.130;6.780;2023-07-13T05:42:15;22.00;99.90
23452;DHT22;11898;51.130;6.780;2023-07-13T05:44:44;22.00;99.90
23452;DHT22;11898;51.130;6.780;2023-07-13T05:47:12;22.00;99.90
23452;DHT22;11898;51.130;6.780;2023-07-13T05:49:42;21.90;99.90
23452;DHT22;11898;51.130;6.780;2023-07-13T05:52:11;21.90;99.90
23452;DHT22;11898;51.130;6.780;2023-07-13T05:54:40;21.90;99.90
23452;DHT22;11898;51.130;6.780;2023-07-13T05:57:08;21.90;99.90
23452;DHT22;11898;51.130;6.780;2023-07-13T05:59:37;22.00;99.90
23452;DHT22;11898;51.130;6.780;2023-07-13T06:02:07;22.00;99.90
23452;DHT22;11898;51.130;6.780;2023-07-13T06:04:36;22.10;99.90
23452;DHT22;11898;51.130;6.780;2023-07-13T06:07:05;22.10;99.90
23452;DHT22;11898;51.130;6.780;2023-07-13T06:09:34;22.50;99.90
23452;DHT22;11898;51.130;6.780;2023-07-13T06:12:03;22.00;99.90
23452;DHT22;11898;51.130;6.780;2023-07-13T06:14:31;22.00;99.90
23452;DHT22;11898;51.130;6.780;2023-07-13T06:17:00;22.00;99.90
23452;DHT22;11898;51.130;6.780;2023-07-13T06:19:29;21.90;99.90
23452;DHT22;11898;51.130;6.780;2023-07-13T06:21:58;22.00;99.90
23452;DHT22;11898;51.130;6.780;2023-07-13T06:24:28;22.00;99.90
23452;DHT22;11898;51.130;6.780;2023-07-13T06:26:57;21.90;99.90
23452;DHT22;11898;51.130;6.780;2023-07-13T06:29:26;21.90;99.90
23452;DHT22;11898;51.130;6.780;2023-07-13T06:31:55;21.90;99.90
23452;DHT22;11898;51.130;6.780;2023-07-13T06:34:23;21.90;99.90
23452;DHT22;11898;51.130;6.780;2023-07-13T06:36:55;22.00;99.90
23452;DHT22;11898;51.130;6.780;2023-07-13T06:39:24;22.00;99.90
23452;DHT22;11898;51.130;6.780;2023-07-13T06:41:52;22.00;99.90
23452;DHT22;11898;51.130;6.780;2023-07-13T06:44:21;22.00;99.90
23452;DHT22;11898;51.130;6.780;2023-07-13T06:46:50;22.00;99.90
23452;DHT22;11898;51.130;6.780;2023-07-13T06:49:18;21.90;99.90
23452;DHT22;11898;51.130;6.780;2023-07-13T06:51:47;21.90;99.90
23452;DHT22;11898;51.130;6.780;2023-07-13T06:54:17;21.90;99.90
23452;DHT22;11898;51.130;6.780;2023-07-13T06:56:46;21.90;99.90
23452;DHT22;11898;51.130;6.780;2023-07-13T06:59:15;21.90;99.90
23452;DHT22;11898;51.130;6.780;2023-07-13T07:01:43;21.90;99.90
23452;DHT22;11898;51.130;6.780;2023-07-13T07:04:12;21.80;99.90
23452;DHT22;11898;51.130;6.780;2023-07-13T07:06:41;21.80;99.90
23452;DHT22;11898;51.130;6.780;2023-07-13T07:09:09;21.70;99.90
23452;DHT22;11898;51.130;6.780;2023-07-13T07:11:40;21.70;99.90
23452;DHT22;11898;51.130;6.780;2023-07-13T07:14:12;21.60;99.90
23452;DHT22;11898;51.130;6.780;2023-07-13T07:16:41;21.60;99.90
23452;DHT22;11898;51.130;6.780;2023-07-13T07:19:10;21.60;99.90
23452;DHT22;11898;51.130;6.780;2023-07-13T07:21:39;21.60;99.90
23452;DHT22;11898;51.130;6.780;2023-07-13T07:24:08;21.60;99.90
23452;DHT22;11898;51.130;6.780;2023-07-13T07:26:37;21.70;99.90
23452;DHT22;11898;51.130;6.780;2023-07-13T07:29:07;21.70;99.90
23452;DHT22;11898;51.130;6.780;2023-07-13T07:31:38;21.70;99.90
23452;DHT22;11898;51.130;6.780;2023-07-13T07:34:08;21.70;99.90
23452;DHT22;11898;51.130;6.780;2023-07-13T07:36:37;21.70;99.90
23452;DHT22;11898;51.130;6.780;2023-07-13T07:39:07;21.80;99.90
23452;DHT22;11898;51.130;6.780;2023-07-13T07:41:36;21.80;99.90
23452;DHT22;11898;51.130;6.780;2023-07-13T07:44:06;21.90;99.90
23452;DHT22;11898;51.130;6.780;2023-07-13T07:46:37;22.00;99.90
23452;DHT22;11898;51.130;6.780;2023-07-13T07:49:07;22.20;99.90
23452;DHT22;11898;51.130;6.780;2023-07-13T07:51:36;22.50;99.90
23452;DHT22;11898;51.130;6.780;2023-07-13T07:54:05;22.40;99.90
23452;DHT22;11898;51.130;6.780;2023-07-13T07:56:34;22.60;99.90
23452;DHT22;11898;51.130;6.780;2023-07-13T07:59:05;22.70;99.90
23452;DHT22;11898;51.130;6.780;2023-07-13T08:01:35;22.80;99.90
23452;DHT22;11898;51.130;6.780;2023-07-13T08:04:06;22.90;99.90
23452;DHT22;11898;51.130;6.780;2023-07-13T08:06:36;23.00;99.90
23452;DHT22;11898;51.130;6.780;2023-07-13T08:09:06;23.00;99.90
23452;DHT22;11898;51.130;6.780;2023-07-13T08:11:36;23.10;99.90
23452;DHT22;11898;51.130;6.780;2023-07-13T08:14:09;23.20;99.90
23452;DHT22;11898;51.130;6.780;2023-07-13T08:16:38;23.20;99.90
23452;DHT22;11898;51.130;6.780;2023-07-13T08:19:07;23.10;99.90
23452;DHT22;11898;51.130;6.780;2023-07-13T08:21:36;23.10;99.90
23452;DHT22;11898;51.130;6.780;2023-07-13T08:24:06;23.10;99.90
23452;DHT22;11898;51.130;6.780;2023-07-13T08:26:35;23.10;99.90
23452;DHT22;11898;51.130;6.780;2023-07-13T08:29:04;23.20;99.90
23452;DHT22;11898;51.130;6.780;2023-07-13T08:31:34;23.20;99.90
23452;DHT22;11898;51.130;6.780;2023-07-13T08:34:03;23.10;99.90
23452;DHT22;11898;51.130;6.780;2023-07-13T08:36:31;23.20;99.90
23452;DHT22;11898;51.130;6.780;2023-07-13T08:39:00;23.20;99.90
23452;DHT22;11898;51.130;6.780;2023-07-13T08:41:29;23.20;99.90
23452;DHT22;11898;51.130;6.780;2023-07-13T08:43:59;23.30;99.90
23452;DHT22;11898;51.130;6.780;2023-07-13T08:46:37;23.30;99.90
23452;DHT22;11898;51.130;6.780;2023-07-13T08:49:16;23.30;99.90
23452;DHT22;11898;51.130;6.780;2023-07-13T08:51:53;23.30;99.90
23452;DHT22;11898;51.130;6.780;2023-07-13T08:54:28;23.30;99.90
23452;DHT22;11898;51.130;6.780;2023-07-13T08:57:00;23.30;99.90
23452;DHT22;11898;51.130;6.780;2023-07-13T08:59:31;23.30;99.90
23452;DHT22;11898;51.130;6.780;2023-07-13T09:02:26;23.30;99.90
23452;DHT22;11898;51.130;6.780;2023-07-13T09:05:03;23.30;99.90
23452;DHT22;11898;51.130;6.780;2023-07-13T09:08:14;23.40;99.90
23452;DHT22;11898;51.130;6.780;2023-07-13T09:10:47;23.40;99.90
23452;DHT22;11898;51.130;6.780;2023-07-13T09:13:34;23.40;99.90
23452;DHT22;11898;51.130;6.780;2023-07-13T09:16:01;23.50;99.90
23452;DHT22;11898;51.130;6.780;2023-07-13T09:18:36;23.60;99.90
23452;DHT22;11898;51.130;6.780;2023-07-13T09:21:17;23.70;99.90
23452;DHT22;11898;51.130;6.780;2023-07-13T09:23:45;23.80;99.90
23452;DHT22;11898;51.130;6.780;2023-07-13T09:26:23;23.80;99.90
23452;DHT22;11898;51.130;6.780;2023-07-13T09:29:03;23.80;99.90
23452;DHT22;11898;51.130;6.780;2023-07-13T09:31:38;23.80;99.90
23452;DHT22;11898;51.130;6.780;2023-07-13T09:34:11;23.80;99.90
23452;DHT22;11898;51.130;6.780;2023-07-13T09:36:40;23.80;99.90
23452;DHT22;11898;51.130;6.780;2023-07-13T09:39:15;23.80;99.90
23452;DHT22;11898;51.130;6.780;2023-07-13T09:42:00;23.90;99.90
23452;DHT22;11898;51.130;6.780;2023-07-13T09:44:31;23.90;99.90
23452;DHT22;11898;51.130;6.780;2023-07-13T09:47:00;24.00;99.90
23452;DHT22;11898;51.130;6.780;2023-07-13T09:49:34;24.00;99.90
23452;DHT22;11898;51.130;6.780;2023-07-13T09:52:05;24.10;99.90
23452;DHT22;11898;51.130;6.780;2023-07-13T09:54:35;24.10;99.90
23452;DHT22;11898;51.130;6.780;2023-07-13T09:57:15;24.20;99.90
23452;DHT22;11898;51.130;6.780;2023-07-13T09:59:43;24.20;99.90
23452;DHT22;11898;51.130;6.780;2023-07-13T10:02:30;24.20;99.90
23452;DHT22;11898;51.130;6.780;2023-07-13T10:05:07;24.20;99.90
23452;DHT22;11898;51.130;6.780;2023-07-13T10:07:38;24.30;99.90
23452;DHT22;11898;51.130;6.780;2023-07-13T10:10:15;24.40;99.90
23452;DHT22;11898;51.130;6.780;2023-07-13T10:12:45;24.40;99.90
23452;DHT22;11898;51.130;6.780;2023-07-13T10:15:22;24.50;99.90
23452;DHT22;11898;51.130;6.780;2023-07-13T10:17:54;24.60;99.90
23452;DHT22;11898;51.130;6.780;2023-07-13T10:20:27;24.60;99.90
23452;DHT22;11898;51.130;6.780;2023-07-13T10:23:02;24.60;99.90
23452;DHT22;11898;51.130;6.780;2023-07-13T10:25:31;24.70;99.90
23452;DHT22;11898;51.130;6.780;2023-07-13T10:28:20;24.80;99.90
23452;DHT22;11898;51.130;6.780;2023-07-13T10:30:45;24.90;99.90
23452;DHT22;11898;51.130;6.780;2023-07-13T10:33:17;24.80;99.90
23452;DHT22;11898;51.130;6.780;2023-07-13T10:35:45;24.90;99.90
23452;DHT22;11898;51.130;6.780;2023-07-13T10:38:18;24.90;99.90
23452;DHT22;11898;51.130;6.780;2023-07-13T10:43:35;25.10;99.90
23452;DHT22;11898;51.130;6.780;2023-07-13T10:46:08;25.20;99.90
23452;DHT22;11898;51.130;6.780;2023-07-13T10:48:39;25.20;99.90
23452;DHT22;11898;51.130;6.780;2023-07-13T10:51:10;25.30;99.90
23452;DHT22;11898;51.130;6.780;2023-07-13T10:53:40;25.30;99.90
23452;DHT22;11898;51.130;6.780;2023-07-13T10:56:29;25.30;99.90
23452;DHT22;11898;51.130;6.780;2023-07-13T10:59:12;25.20;99.90
23452;DHT22;11898;51.130;6.780;2023-07-13T11:01:53;25.20;99.90
23452;DHT22;11898;51.130;6.780;2023-07-13T11:04:21;25.20;99.90
23452;DHT22;11898;51.130;6.780;2023-07-13T11:06:56;25.20;99.90
23452;DHT22;11898;51.130;6.780;2023-07-13T11:09:40;25.20;99.90
23452;DHT22;11898;51.130;6.780;2023-07-13T11:17:48;25.10;99.90
23452;DHT22;11898;51.130;6.780;2023-07-13T11:20:20;25.00;99.90
23452;DHT22;11898;51.130;6.780;2023-07-13T11:23:29;25.00;99.90
23452;DHT22;11898;51.130;6.780;2023-07-13T11:25:32;25.00;99.90
23452;DHT22;11898;51.130;6.780;2023-07-13T11:28:12;24.90;99.90
23452;DHT22;11898;51.130;6.780;2023-07-13T11:36:13;25.10;99.90
23452;DHT22;11898;51.130;6.780;2023-07-13T11:38:45;25.10;99.90
23452;DHT22;11898;51.130;6.780;2023-07-13T11:41:19;25.10;99.90
23452;DHT22;11898;51.130;6.780;2023-07-13T11:44:07;25.20;99.90
23452;DHT22;11898;51.130;6.780;2023-07-13T11:46:28;25.30;99.90
23452;DHT22;11898;51.130;6.780;2023-07-13T11:48:58;25.50;99.90
23452;DHT22;11898;51.130;6.780;2023-07-13T11:51:29;25.60;99.90
23452;DHT22;11898;51.130;6.780;2023-07-13T11:54:04;25.90;99.90
23452;DHT22;11898;51.130;6.780;2023-07-13T11:56:36;26.10;99.90
23452;DHT22;11898;51.130;6.780;2023-07-13T11:59:07;26.40;99.90
23452;DHT22;11898;51.130;6.780;2023-07-13T12:01:44;26.70;99.90
23452;DHT22;11898;51.130;6.780;2023-07-13T12:04:19;27.00;99.90
23452;DHT22;11898;51.130;6.780;2023-07-13T12:06:41;27.20;99.90
23452;DHT22;11898;51.130;6.780;2023-07-13T12:09:15;27.40;99.90
23452;DHT22;11898;51.130;6.780;2023-07-13T12:11:44;27.60;99.90
23452;DHT22;11898;51.130;6.780;2023-07-13T12:14:15;27.70;99.90
